Time;durP1;ratioP1;P1;durP2;ratioP2;P2;SDS_P1;SDS_P2;PMS_P1;PMS_P2;Temp;Humidity;BMP_temperature;BMP_pressure;BME280_temperature;BME280_humidity;BME280_pressure;Samples;Min_cycle;Max_cycle;Signal;HPM_P1;HPM_P2
2023/01/26 00:01:22;;;;;;;;;;;;;;;-1.78;100.00;102497.63;5049597;28;19921;-62
2023/01/26 00:03:48;;;;;;;;;;;;;;;-1.79;100.00;102496.78;5047056;28;19923;-62
2023/01/26 00:06:14;;;;;;;;;;;;;;;-1.78;100.00;102490.41;5048600;28;19921;-61
2023/01/26 00:08:40;;;;;;;;;;;;;;;-1.76;100.00;102490.34;5044572;28;19917;-62
2023/01/26 00:11:07;;;;;;;;;;;;;;;-1.72;100.00;102491.84;5050130;28;20548;-61
2023/01/26 00:13:33;;;;;;;;;;;;;;;-1.72;100.00;102487.31;5049731;28;19921;-62
2023/01/26 00:15:58;;;;;;;;;;;;;;;-1.75;100.00;102475.88;5050101;28;19923;-61
2023/01/26 00:18:23;;;;;;;;;;;;;;;-1.66;100.00;102481.47;5050604;28;19917;-62
2023/01/26 00:20:54;;;;;;;;;;;;;;;-1.67;100.00;102474.38;5047717;28;19974;-62
2023/01/26 00:23:19;;;;;;;;;;;;;;;-1.75;100.00;102479.44;5049086;28;19929;-64
2023/01/26 00:25:44;;;;;;;;;;;;;;;-1.75;100.00;102479.44;5050525;28;19948;-62
2023/01/26 00:28:09;;;;;;;;;;;;;;;-1.79;100.00;102469.84;5050622;28;20367;-62
2023/01/26 00:30:34;;;;;;;;;;;;;;;-1.84;100.00;102472.88;5037450;28;19921;-64
2023/01/26 00:32:59;;;;;;;;;;;;;;;-1.78;100.00;102468.00;5049793;28;20312;-62
2023/01/26 00:35:25;;;;;;;;;;;;;;;-1.84;100.00;102467.47;5046647;28;19921;-62
2023/01/26 00:37:50;;;;;;;;;;;;;;;-1.83;100.00;102465.66;5041846;28;19921;-63
2023/01/26 00:40:15;;;;;;;;;;;;;;;-1.87;100.00;102462.34;5050589;28;19956;-62
2023/01/26 00:42:40;;;;;;;;;;;;;;;-1.86;100.00;102468.59;5047072;28;19936;-62
2023/01/26 00:45:05;;;;;;;;;;;;;;;-1.83;100.00;102457.56;5051111;28;19931;-63
2023/01/26 00:47:31;;;;;;;;;;;;;;;-1.84;100.00;102448.63;5048769;28;19917;-61
2023/01/26 00:49:56;;;;;;;;;;;;;;;-1.80;100.00;102446.59;5050417;28;19924;-64
2023/01/26 00:52:21;;;;;;;;;;;;;;;-1.83;100.00;102442.28;5045107;28;19924;-62
2023/01/26 00:54:46;;;;;;;;;;;;;;;-1.81;100.00;102438.63;5048243;28;19967;-62
2023/01/26 00:57:11;;;;;;;;;;;;;;;-1.77;100.00;102434.72;5049465;28;20467;-61
2023/01/26 00:59:36;;;;;;;;;;;;;;;-1.77;100.00;102435.59;5050290;28;19921;-61
2023/01/26 01:02:02;;;;;;;;;;;;;;;-1.75;100.00;102438.19;5044299;28;20007;-63
2023/01/26 01:04:31;;;;;;;;;;;;;;;-1.75;100.00;102439.03;5050163;28;20401;-64
2023/01/26 01:06:56;;;;;;;;;;;;;;;-1.72;100.00;102424.50;5048082;28;20441;-63
2023/01/26 01:09:21;;;;;;;;;;;;;;;-1.76;100.00;102426.56;5048682;28;19960;-61
2023/01/26 01:11:47;;;;;;;;;;;;;;;-1.80;100.00;102425.03;5047938;28;19927;-63
2023/01/26 01:14:12;;;;;;;;;;;;;;;-1.79;100.00;102426.75;5036923;28;19939;-62
2023/01/26 01:16:37;;;;;;;;;;;;;;;-1.70;100.00;102426.09;5050151;28;19917;-66
2023/01/26 01:19:03;;;;;;;;;;;;;;;-1.78;100.00;102433.84;5049462;28;19928;-62
2023/01/26 01:21:28;;;;;;;;;;;;;;;-1.78;100.00;102433.84;5040907;28;20281;-62
2023/01/26 01:23:53;;;;;;;;;;;;;;;-1.77;100.00;102435.59;5047633;28;20399;-63
2023/01/26 01:26:18;;;;;;;;;;;;;;;-1.70;100.00;102430.63;5048683;28;20402;-64
2023/01/26 01:28:44;;;;;;;;;;;;;;;-1.75;100.00;102430.97;5045422;28;19928;-62
2023/01/26 01:31:10;;;;;;;;;;;;;;;-1.79;100.00;102424.06;5048493;28;19917;-62
2023/01/26 01:33:36;;;;;;;;;;;;;;;-1.76;100.00;102423.00;5048498;28;19921;-61
2023/01/26 01:36:03;;;;;;;;;;;;;;;-1.75;100.00;102425.56;5046104;28;19917;-61
2023/01/26 01:38:28;;;;;;;;;;;;;;;-1.73;100.00;102430.84;5048592;28;19920;-62
2023/01/26 01:40:54;;;;;;;;;;;;;;;-1.72;100.00;102427.19;5047644;28;19936;-65
2023/01/26 01:43:20;;;;;;;;;;;;;;;-1.71;100.00;102429.78;5043553;28;19928;-61
2023/01/26 01:45:48;;;;;;;;;;;;;;;-1.70;100.00;102423.41;5049136;28;19932;-62
2023/01/26 01:48:17;;;;;;;;;;;;;;;-1.69;100.00;102427.81;5048856;28;19948;-62
2023/01/26 01:50:43;;;;;;;;;;;;;;;-1.69;100.00;102430.50;5048188;28;19931;-62
2023/01/26 01:53:11;;;;;;;;;;;;;;;-1.67;100.00;102430.41;5048141;28;19920;-66
2023/01/26 01:55:36;;;;;;;;;;;;;;;-1.65;100.00;102434.69;5048757;28;19931;-62
2023/01/26 01:58:02;;;;;;;;;;;;;;;-1.63;100.00;102437.28;5040197;28;19921;-62
2023/01/26 02:00:28;;;;;;;;;;;;;;;-1.62;100.00;102434.50;5040140;28;20585;-61
2023/01/26 02:03:29;;;;;;;;;;;;;;;-1.56;100.00;102430.47;5047577;28;20426;-62
2023/01/26 02:05:51;;;;;;;;;;;;;;;-1.55;100.00;102428.66;5046698;28;20283;-61
2023/01/26 02:08:17;;;;;;;;;;;;;;;-1.51;100.00;102420.22;5048260;28;20341;-62
2023/01/26 02:10:46;;;;;;;;;;;;;;;-1.44;100.00;102412.53;5043773;28;19948;-62
2023/01/26 02:13:12;;;;;;;;;;;;;;;-1.46;100.00;102409.09;5048195;28;19924;-65
2023/01/26 02:15:37;;;;;;;;;;;;;;;-1.45;100.00;102405.44;5048859;28;19917;-62
2023/01/26 02:18:03;;;;;;;;;;;;;;;-1.51;100.00;102400.50;5048185;28;19921;-61
2023/01/26 02:20:40;;;;;;;;;;;;;;;-1.51;100.00;102400.50;5043924;28;19929;-62
2023/01/26 02:23:08;;;;;;;;;;;;;;;-1.54;100.00;102398.88;5036562;28;19920;-64
2023/01/26 02:25:33;;;;;;;;;;;;;;;-1.53;100.00;102397.03;5048877;28;19920;-62
2023/01/26 02:27:59;;;;;;;;;;;;;;;-1.53;100.00;102397.03;5047231;28;20330;-62
2023/01/26 02:30:26;;;;;;;;;;;;;;;-1.49;100.00;102401.25;5039456;28;19921;-61
2023/01/26 02:32:51;;;;;;;;;;;;;;;-1.41;100.00;102394.31;5047370;28;19920;-62
2023/01/26 02:35:16;;;;;;;;;;;;;;;-1.47;100.00;102388.50;5047558;28;19943;-62
2023/01/26 02:37:42;;;;;;;;;;;;;;;-1.45;100.00;102391.97;5046569;28;20291;-61
2023/01/26 02:40:30;;;;;;;;;;;;;;;-1.48;100.00;102386.78;5041768;28;19982;-62
2023/01/26 02:42:55;;;;;;;;;;;;;;;-1.47;100.00;102385.81;5027284;28;19932;-64
2023/01/26 02:45:21;;;;;;;;;;;;;;;-1.47;100.00;102388.50;5048347;28;19920;-62
2023/01/26 02:47:46;;;;;;;;;;;;;;;-1.42;100.00;102389.00;5048029;28;19924;-63
2023/01/26 02:50:12;;;;;;;;;;;;;;;-1.33;100.00;102385.63;5040692;28;19929;-62
2023/01/26 02:52:37;;;;;;;;;;;;;;;-1.42;100.00;102380.94;5029030;28;19917;-61
2023/01/26 02:57:49;;;;;;;;;;;;;;;-1.39;100.00;102381.56;5046034;28;20067;-63
2023/01/26 03:00:35;;;;;;;;;;;;;;;-1.43;100.00;102385.47;5045172;28;20416;-61
2023/01/26 03:03:06;;;;;;;;;;;;;;;-1.43;100.00;102385.47;5047349;28;19995;-62
2023/01/26 03:05:31;;;;;;;;;;;;;;;-1.42;100.00;102383.63;5046657;28;19916;-62
2023/01/26 03:07:56;;;;;;;;;;;;;;;-1.40;100.00;102385.25;5046906;28;19923;-62
2023/01/26 03:10:24;;;;;;;;;;;;;;;-1.39;100.00;102376.19;5045352;28;20347;-61
2023/01/26 03:12:49;;;;;;;;;;;;;;;-1.37;100.00;102373.34;5036682;28;19917;-62
2023/01/26 03:28:57;;;;;;;;;;;;;;;-1.29;100.00;102378.19;5040135;28;19967;-62
2023/01/26 03:31:23;;;;;;;;;;;;;;;-1.27;100.00;102378.91;5041581;28;19925;-62
2023/01/26 03:33:48;;;;;;;;;;;;;;;-1.25;100.00;102382.38;5046844;28;19916;-62
2023/01/26 03:36:13;;;;;;;;;;;;;;;-1.25;100.00;102382.38;5044604;28;19963;-62
2023/01/26 03:38:38;;;;;;;;;;;;;;;-1.22;100.00;102371.34;5043203;28;19924;-65
2023/01/26 03:57:27;;;;;;;;;;;;;;;-1.07;100.00;102360.25;5037522;28;19978;-62
2023/01/26 03:59:53;;;;;;;;;;;;;;;-1.08;100.00;102355.84;5047283;28;20015;-65
2023/01/26 04:10:30;;;;;;;;;;;;;;;-0.98;100.00;102369.47;5047053;28;19943;-62
2023/01/26 04:23:57;;;;;;;;;;;;;;;-0.89;100.00;102357.97;5049261;28;20416;-65
2023/01/26 04:26:23;;;;;;;;;;;;;;;-0.87;100.00;102365.94;5050390;28;19916;-63
2023/01/26 04:28:49;;;;;;;;;;;;;;;-0.88;100.00;102365.09;5050759;28;19916;-62
2023/01/26 04:31:15;;;;;;;;;;;;;;;-0.87;100.00;102363.25;5045511;28;19944;-62
2023/01/26 04:33:40;;;;;;;;;;;;;;;-0.84;100.00;102366.56;5049109;28;20016;-62
2023/01/26 04:36:07;;;;;;;;;;;;;;;-0.82;100.00;102364.59;5050581;28;19932;-62
2023/01/26 04:38:32;;;;;;;;;;;;;;;-0.83;100.00;102364.72;5047567;28;19921;-63
2023/01/26 04:40:57;;;;;;;;;;;;;;;-0.82;100.00;102371.84;5046669;28;20509;-61
2023/01/26 04:43:22;;;;;;;;;;;;;;;-0.76;100.00;102363.28;5048540;28;19923;-62
2023/01/26 04:46:01;;;;;;;;;;;;;;;-0.81;100.00;102360.94;5049534;28;20338;-62
2023/01/26 04:48:27;;;;;;;;;;;;;;;-0.78;100.00;102365.22;5050547;28;19944;-63
2023/01/26 04:50:53;;;;;;;;;;;;;;;-0.77;100.00;102358.84;5047156;28;20504;-63
2023/01/26 04:53:18;;;;;;;;;;;;;;;-0.73;100.00;102360.34;5045900;28;20348;-63
2023/01/26 04:55:43;;;;;;;;;;;;;;;-0.72;100.00;102364.75;5049909;28;19944;-62
2023/01/26 04:58:08;;;;;;;;;;;;;;;-0.71;100.00;102366.50;5049611;28;19921;-65
2023/01/26 05:00:34;;;;;;;;;;;;;;;-0.70;100.00;102365.50;5050084;28;20502;-63
2023/01/26 05:02:59;;;;;;;;;;;;;;;-0.69;100.00;102348.34;5048887;28;19952;-61
2023/01/26 05:05:24;;;;;;;;;;;;;;;-0.68;100.00;102360.84;5049769;28;19917;-64
2023/01/26 05:07:49;;;;;;;;;;;;;;;-0.66;100.00;102352.63;5048757;28;19921;-62
2023/01/26 05:10:14;;;;;;;;;;;;;;;-0.64;100.00;102354.22;5050104;28;19920;-63
2023/01/26 05:12:41;;;;;;;;;;;;;;;-0.64;100.00;102347.97;5047581;28;19967;-62
2023/01/26 05:15:07;;;;;;;;;;;;;;;-0.64;100.00;102351.53;5050167;28;19924;-63
2023/01/26 05:17:32;;;;;;;;;;;;;;;-0.62;100.00;102352.25;5050109;28;20015;-62
2023/01/26 05:19:57;;;;;;;;;;;;;;;-0.60;100.00;102360.25;5049877;28;20024;-61
2023/01/26 05:22:22;;;;;;;;;;;;;;;-0.59;100.00;102351.16;5045196;28;20394;-62
2023/01/26 05:24:47;;;;;;;;;;;;;;;-0.56;100.00;102353.59;5045607;28;19928;-62
2023/01/26 05:27:22;;;;;;;;;;;;;;;-0.57;100.00;102357.28;5047139;28;19917;-63
2023/01/26 05:29:50;;;;;;;;;;;;;;;-0.56;100.00;102359.88;5048880;28;19921;-63
2023/01/26 05:32:15;;;;;;;;;;;;;;;-0.57;100.00;102363.53;5047769;28;19916;-62
2023/01/26 05:34:40;;;;;;;;;;;;;;;-0.55;100.00;102360.75;5049099;28;19966;-63
2023/01/26 05:37:06;;;;;;;;;;;;;;;-0.53;100.00;102356.94;5047419;28;19920;-62
2023/01/26 05:39:31;;;;;;;;;;;;;;;-0.50;100.00;102365.78;5043912;28;19921;-62
2023/01/26 05:41:56;;;;;;;;;;;;;;;-0.49;100.00;102362.97;5044546;28;19928;-62
2023/01/26 05:44:23;;;;;;;;;;;;;;;-0.48;100.00;102358.41;5048327;28;20356;-63
2023/01/26 05:46:48;;;;;;;;;;;;;;;-0.47;100.00;102360.13;5049023;28;19924;-61
2023/01/26 05:49:13;;;;;;;;;;;;;;;-0.47;100.00;102360.97;5049613;28;19913;-62
2023/01/26 05:51:39;;;;;;;;;;;;;;;-0.47;100.00;102355.59;5047663;28;19921;-62
2023/01/26 05:54:04;;;;;;;;;;;;;;;-0.44;100.00;102359.88;5047756;28;19929;-62
2023/01/26 05:56:29;;;;;;;;;;;;;;;-0.43;100.00;102357.06;5045847;28;19968;-62
2023/01/26 05:58:54;;;;;;;;;;;;;;;-0.42;100.00;102358.78;5048579;28;20029;-62
2023/01/26 06:01:19;;;;;;;;;;;;;;;-0.41;100.00;102357.78;5046325;28;20381;-64
2023/01/26 06:03:45;;;;;;;;;;;;;;;-0.41;100.00;102359.63;5046963;28;19916;-63
2023/01/26 06:06:10;;;;;;;;;;;;;;;-0.41;100.00;102362.31;5046159;28;19999;-63
2023/01/26 06:08:35;;;;;;;;;;;;;;;-0.41;100.00;102367.72;5045007;28;20345;-62
2023/01/26 06:11:00;;;;;;;;;;;;;;;-0.41;100.00;102373.97;5047803;28;20011;-62
2023/01/26 06:13:25;;;;;;;;;;;;;;;-0.38;100.00;102375.59;5047019;28;20326;-64
2023/01/26 06:15:51;;;;;;;;;;;;;;;-0.37;100.00;102380.00;5043613;28;19952;-63
2023/01/26 06:18:16;;;;;;;;;;;;;;;-0.38;100.00;102378.28;5046029;28;19928;-62
2023/01/26 06:20:41;;;;;;;;;;;;;;;-0.38;100.00;102379.16;5043278;28;19921;-62
2023/01/26 06:23:10;;;;;;;;;;;;;;;-0.36;100.00;102377.19;5046304;28;19924;-62
2023/01/26 06:25:38;;;;;;;;;;;;;;;-0.34;100.00;102369.84;5046230;28;19974;-62
2023/01/26 06:28:03;;;;;;;;;;;;;;;-0.33;100.00;102373.38;5047798;28;19920;-64
2023/01/26 06:30:28;;;;;;;;;;;;;;;-0.31;100.00;102368.72;5042022;28;20539;-61
2023/01/26 06:32:53;;;;;;;;;;;;;;;-0.28;100.00;102373.88;5047251;28;20294;-62
2023/01/26 06:35:19;;;;;;;;;;;;;;;-0.30;100.00;102376.72;5045444;28;19921;-65
2023/01/26 06:37:46;;;;;;;;;;;;;;;-0.30;100.00;102379.41;5047178;28;19928;-62
2023/01/26 06:40:11;;;;;;;;;;;;;;;-0.29;100.00;102375.72;5046378;28;19921;-62
2023/01/26 06:42:36;;;;;;;;;;;;;;;-0.27;100.00;102383.69;5043956;28;20413;-62
2023/01/26 06:45:02;;;;;;;;;;;;;;;-0.28;100.00;102388.22;5045530;28;19921;-63
2023/01/26 06:47:27;;;;;;;;;;;;;;;-0.29;100.00;102388.38;5047656;28;20710;-62
2023/01/26 06:49:52;;;;;;;;;;;;;;;-0.29;100.00;102385.66;5047023;28;19921;-64
2023/01/26 06:52:20;;;;;;;;;;;;;;;-0.28;100.00;102381.97;5047736;28;19963;-62
2023/01/26 06:54:49;;;;;;;;;;;;;;;-0.29;100.00;102382.97;5046968;28;19940;-63
2023/01/26 06:57:14;;;;;;;;;;;;;;;-0.26;100.00;102382.69;5046268;28;19921;-62
2023/01/26 06:59:39;;;;;;;;;;;;;;;-0.26;100.00;102386.25;5045493;28;19921;-62
2023/01/26 07:02:09;;;;;;;;;;;;;;;-0.27;100.00;102376.44;5046009;28;20015;-63
2023/01/26 07:04:34;;;;;;;;;;;;;;;-0.23;100.00;102389.72;5043483;28;20008;-62
2023/01/26 07:06:59;;;;;;;;;;;;;;;-0.22;100.00;102389.59;5040973;28;20011;-62
2023/01/26 07:09:24;;;;;;;;;;;;;;;-0.23;100.00;102398.66;5047166;28;19920;-65
2023/01/26 07:11:49;;;;;;;;;;;;;;;-0.22;100.00;102400.38;5046454;28;19925;-63
2023/01/26 07:14:14;;;;;;;;;;;;;;;-0.22;100.00;102397.69;5046698;28;19960;-62
2023/01/26 07:16:40;;;;;;;;;;;;;;;-0.21;100.00;102401.25;5045037;28;20283;-62
2023/01/26 07:19:05;;;;;;;;;;;;;;;-0.21;100.00;102404.78;5044189;28;19924;-62
2023/01/26 07:21:30;;;;;;;;;;;;;;;-0.22;100.00;102394.97;5047344;28;19920;-63
2023/01/26 07:23:55;;;;;;;;;;;;;;;-0.19;100.00;102399.28;5044933;28;20012;-63
2023/01/26 07:26:21;;;;;;;;;;;;;;;-0.18;100.00;102395.59;5045330;28;20363;-63
2023/01/26 07:28:46;;;;;;;;;;;;;;;-0.18;100.00;102395.59;5047064;28;19921;-63
2023/01/26 07:31:12;;;;;;;;;;;;;;;-0.17;100.00;102398.19;5046366;28;19917;-62
2023/01/26 07:33:37;;;;;;;;;;;;;;;-0.15;100.00;102398.03;5046077;28;19971;-63
2023/01/26 07:36:03;;;;;;;;;;;;;;;-0.15;100.00;102393.53;5046393;28;19978;-62
2023/01/26 07:38:28;;;;;;;;;;;;;;;-0.14;100.00;102400.63;5046641;28;19928;-65
2023/01/26 07:40:53;;;;;;;;;;;;;;;-0.13;100.00;102393.41;5047249;28;19921;-63
2023/01/26 07:43:18;;;;;;;;;;;;;;;-0.10;100.00;102402.13;5041466;28;19917;-63
2023/01/26 07:45:50;;;;;;;;;;;;;;;-0.09;100.00;102398.44;5046820;28;20298;-62
2023/01/26 07:48:15;;;;;;;;;;;;;;;-0.07;100.00;102409.09;5046814;28;19977;-65
2023/01/26 07:50:40;;;;;;;;;;;;;;;-0.05;100.00;102407.13;5039541;28;20011;-62
2023/01/26 07:53:07;;;;;;;;;;;;;;;-0.04;100.00;102406.16;5049225;28;20260;-63
2023/01/26 07:55:33;;;;;;;;;;;;;;;-0.05;100.00;102412.53;5049177;28;19978;-64
2023/01/26 07:57:58;;;;;;;;;;;;;;;-0.05;100.00;102413.41;5043993;28;19925;-63
2023/01/26 08:00:24;;;;;;;;;;;;;;;-0.04;100.00;102420.53;5037767;28;20395;-62
2023/01/26 08:02:49;;;;;;;;;;;;;;;-0.03;100.00;102421.38;5044676;28;19921;-62
2023/01/26 08:05:15;;;;;;;;;;;;;;;-0.03;100.00;102427.63;5051323;28;20413;-62
2023/01/26 08:07:40;;;;;;;;;;;;;;;-0.02;100.00;102429.34;5047491;28;19921;-64
2023/01/26 08:10:05;;;;;;;;;;;;;;;-0.02;100.00;102434.75;5048667;28;19920;-63
2023/01/26 08:12:33;;;;;;;;;;;;;;;-0.01;100.00;102431.06;5039339;28;19982;-63
2023/01/26 08:14:58;;;;;;;;;;;;;;;0.01;100.00;102425.56;5030974;28;20012;-62
2023/01/26 08:17:23;;;;;;;;;;;;;;;0.04;100.00;102433.41;5041336;28;20024;-63
2023/01/26 08:19:48;;;;;;;;;;;;;;;0.05;100.00;102431.56;5050480;28;19917;-64
2023/01/26 08:22:13;;;;;;;;;;;;;;;0.04;100.00;102429.84;5050029;28;19916;-63
2023/01/26 08:24:39;;;;;;;;;;;;;;;0.06;100.00;102433.31;5050862;28;20726;-63
2023/01/26 08:27:04;;;;;;;;;;;;;;;0.07;100.00;102426.91;5049982;28;19925;-62
2023/01/26 08:29:29;;;;;;;;;;;;;;;0.09;100.00;102427.63;5042611;28;19925;-63
2023/01/26 08:31:54;;;;;;;;;;;;;;;0.11;100.00;102423.84;5030436;28;19924;-64
2023/01/26 08:34:21;;;;;;;;;;;;;;;0.13;100.00;102427.25;5029617;28;19968;-64
2023/01/26 08:36:46;;;;;;;;;;;;;;;0.17;100.00;102430.59;5035943;28;19947;-62
2023/01/26 08:39:11;;;;;;;;;;;;;;;0.19;100.00;102432.16;5050144;28;20023;-63
2023/01/26 08:41:37;;;;;;;;;;;;;;;0.21;100.00;102434.75;5049263;28;19963;-62
2023/01/26 08:44:02;;;;;;;;;;;;;;;0.24;100.00;102445.31;5049922;28;19917;-62
2023/01/26 08:46:27;;;;;;;;;;;;;;;0.28;100.00;102444.06;5048758;28;20001;-63
2023/01/26 08:48:52;;;;;;;;;;;;;;;0.31;100.00;102441.13;5049798;28;20260;-62
2023/01/26 08:51:18;;;;;;;;;;;;;;;0.37;100.00;102442.47;5045141;28;20367;-63
2023/01/26 08:53:43;;;;;;;;;;;;;;;0.39;100.00;102443.19;5048384;28;19925;-63
2023/01/26 08:56:10;;;;;;;;;;;;;;;0.44;100.00;102441.84;5048470;28;19924;-65
2023/01/26 08:58:35;;;;;;;;;;;;;;;0.46;100.00;102445.28;5038813;28;20315;-64
2023/01/26 09:01:09;;;;;;;;;;;;;;;0.52;100.00;102433.97;5038918;28;19932;-64
2023/01/26 09:03:35;;;;;;;;;;;;;;;0.57;100.00;102430.88;5040974;28;20490;-63
2023/01/26 09:06:00;;;;;;;;;;;;;;;0.62;100.00;102436.78;5037468;28;19932;-64
2023/01/26 09:08:26;;;;;;;;;;;;;;;0.71;100.00;102432.44;5037470;28;19932;-62
2023/01/26 09:10:51;;;;;;;;;;;;;;;0.76;100.00;102436.50;5035507;28;19928;-64
2023/01/26 09:13:16;;;;;;;;;;;;;;;0.74;100.00;102443.00;5038235;28;19960;-65
2023/01/26 09:15:41;;;;;;;;;;;;;;;0.72;100.00;102439.59;5033116;28;19963;-63
2023/01/26 09:18:08;;;;;;;;;;;;;;;0.67;100.00;102441.81;5036551;28;20376;-63
2023/01/26 09:20:33;;;;;;;;;;;;;;;0.68;100.00;102435.41;5040916;28;19924;-62
2023/01/26 09:22:58;;;;;;;;;;;;;;;0.71;100.00;102445.94;5044658;28;19931;-63
2023/01/26 09:25:23;;;;;;;;;;;;;;;0.68;100.00;102443.53;5049439;28;19917;-63
2023/01/26 09:27:48;;;;;;;;;;;;;;;0.65;100.00;102446.47;5039286;28;19931;-64
2023/01/26 09:30:14;;;;;;;;;;;;;;;0.64;100.00;102456.41;5041810;28;19921;-63
2023/01/26 09:32:39;;;;;;;;;;;;;;;0.63;100.00;102454.72;5043399;28;19963;-65
2023/01/26 09:35:05;;;;;;;;;;;;;;;0.65;100.00;102460.84;5034436;28;19956;-63
2023/01/26 09:37:30;;;;;;;;;;;;;;;0.68;100.00;102455.19;5040864;28;19935;-63
2023/01/26 09:39:55;;;;;;;;;;;;;;;0.73;100.00;102458.38;5033145;28;20295;-65
2023/01/26 09:42:39;;;;;;;;;;;;;;;0.78;100.00;102455.28;5041452;28;19925;-63
2023/01/26 09:45:24;;;;;;;;;;;;;;;0.83;100.00;102458.47;5044777;28;19921;-63
2023/01/26 09:48:08;;;;;;;;;;;;;;;0.89;100.00;102457.94;5031301;28;19928;-63
2023/01/26 09:50:37;;;;;;;;;;;;;;;0.90;100.00;102454.25;5039814;28;20417;-62
2023/01/26 09:53:07;;;;;;;;;;;;;;;0.96;100.00;102453.78;5038425;28;19935;-65
2023/01/26 09:55:32;;;;;;;;;;;;;;;1.00;100.00;102451.63;5045803;28;19931;-63
2023/01/26 09:58:05;;;;;;;;;;;;;;;1.06;100.00;102458.38;5040245;28;19925;-63
2023/01/26 10:00:40;;;;;;;;;;;;;;;1.11;100.00;102453.44;5035992;28;20007;-63
2023/01/26 10:03:17;;;;;;;;;;;;;;;1.12;100.00;102453.34;5048658;28;19924;-64
2023/01/26 10:06:01;;;;;;;;;;;;;;;1.17;100.00;102455.66;5044950;28;19962;-65
2023/01/26 10:08:26;;;;;;;;;;;;;;;1.22;100.00;102456.97;5039267;28;19970;-62
2023/01/26 10:10:53;;;;;;;;;;;;;;;1.23;100.00;102455.97;5039103;28;20337;-63
2023/01/26 10:13:19;;;;;;;;;;;;;;;1.29;100.00;102449.19;5044457;28;19921;-63
2023/01/26 10:15:46;;;;;;;;;;;;;;;1.30;100.00;102442.78;5037832;28;19964;-64
2023/01/26 10:18:20;;;;;;;;;;;;;;;1.36;100.00;102436.84;5041369;28;19928;-63
2023/01/26 10:20:47;;;;;;;;;;;;;;;1.42;100.00;102441.75;5030305;28;19929;-63
2023/01/26 10:23:22;;;;;;;;;;;;;;;1.48;100.00;102445.78;5029484;28;20410;-62
2023/01/26 10:25:49;;;;;;;;;;;;;;;1.52;100.00;102448.09;5042261;28;19927;-62
2023/01/26 10:28:14;;;;;;;;;;;;;;;1.56;100.00;102445.94;5033514;28;19979;-62
2023/01/26 10:30:41;;;;;;;;;;;;;;;1.61;100.00;102453.69;5033842;28;19921;-63
2023/01/26 10:33:17;;;;;;;;;;;;;;;1.64;100.00;102451.56;5046186;28;19924;-62
2023/01/26 10:35:42;;;;;;;;;;;;;;;1.71;100.00;102450.03;5044241;28;19991;-62
2023/01/26 10:38:27;;;;;;;;;;;;;;;1.75;100.00;102456.06;5044524;28;20469;-65
2023/01/26 10:40:52;;;;;;;;;;;;;;;1.80;100.00;102465.50;5045121;28;20425;-65
2023/01/26 10:43:17;;;;;;;;;;;;;;;1.87;100.00;102460.38;5035722;28;19953;-64
2023/01/26 10:45:44;;;;;;;;;;;;;;;1.94;100.00;102455.31;5036486;28;20016;-64
2023/01/26 10:48:12;;;;;;;;;;;;;;;2.03;100.00;102449.09;5044106;28;19929;-63
2023/01/26 10:50:37;;;;;;;;;;;;;;;2.11;100.00;102446.53;5041467;28;20418;-63
2023/01/26 10:53:03;;;;;;;;;;;;;;;2.25;100.00;102458.88;5043598;28;19924;-64
2023/01/26 10:55:30;;;;;;;;;;;;;;;2.34;100.00;102455.34;5045693;28;19947;-63
2023/01/26 10:57:55;;;;;;;;;;;;;;;2.40;100.00;102457.50;5038904;28;19973;-63
2023/01/26 11:00:20;;;;;;;;;;;;;;;2.51;100.00;102457.38;5034222;28;20019;-63
2023/01/26 11:02:50;;;;;;;;;;;;;;;2.62;100.00;102450.13;5031759;28;19925;-64
2023/01/26 11:05:18;;;;;;;;;;;;;;;2.80;100.00;102441.19;5038076;28;19920;-63
2023/01/26 11:07:45;;;;;;;;;;;;;;;3.01;100.00;102449.19;5041751;28;19928;-63
2023/01/26 11:10:17;;;;;;;;;;;;;;;3.17;100.00;102445.03;5046103;28;19994;-65
2023/01/26 11:12:43;;;;;;;;;;;;;;;3.35;100.00;102437.91;5043757;28;19964;-63
2023/01/26 11:15:14;;;;;;;;;;;;;;;3.51;100.00;102443.59;5042567;28;20017;-65
2023/01/26 11:17:43;;;;;;;;;;;;;;;3.74;100.00;102443.25;5043332;28;19921;-63
2023/01/26 11:20:27;;;;;;;;;;;;;;;4.14;100.00;102438.41;5045382;28;20319;-63
2023/01/26 11:23:07;;;;;;;;;;;;;;;4.45;100.00;102438.09;5026909;28;19939;-62
2023/01/26 11:25:35;;;;;;;;;;;;;;;4.86;100.00;102435.84;5029150;28;20686;-62
2023/01/26 11:28:00;;;;;;;;;;;;;;;4.97;100.00;102443.81;5052714;28;19920;-64
2023/01/26 11:30:29;;;;;;;;;;;;;;;4.92;100.00;102444.28;5053770;28;19919;-63
2023/01/26 11:32:57;;;;;;;;;;;;;;;4.88;100.00;102439.28;5053496;28;20016;-63
2023/01/26 11:35:38;;;;;;;;;;;;;;;4.94;100.00;102450.41;5042803;28;20007;-63
2023/01/26 11:38:08;;;;;;;;;;;;;;;5.52;100.00;102440.88;5053275;28;20441;-65
2023/01/26 11:40:46;;;;;;;;;;;;;;;6.04;100.00;102432.75;5050495;28;19973;-63
2023/01/26 11:43:36;;;;;;;;;;;;;;;7.42;100.00;102423.22;5033699;28;19917;-63
2023/01/26 11:46:20;;;;;;;;;;;;;;;8.48;99.13;102420.25;5037127;28;19916;-64
2023/01/26 11:48:45;;;;;;;;;;;;;;;9.33;94.41;102415.56;5036504;28;19928;-64
2023/01/26 11:51:16;;;;;;;;;;;;;;;10.14;94.66;102415.81;5046003;28;19925;-63
2023/01/26 11:53:54;;;;;;;;;;;;;;;10.76;91.43;102407.13;5053859;28;19958;-64
2023/01/26 11:56:24;;;;;;;;;;;;;;;10.97;90.49;102398.03;5053674;28;19935;-63
2023/01/26 11:59:09;;;;;;;;;;;;;;;10.56;86.24;102406.03;5053411;28;19959;-63
2023/01/26 12:01:38;;;;;;;;;;;;;;;9.81;87.54;102409.81;5051219;28;19924;-63
2023/01/26 12:04:03;;;;;;;;;;;;;;;9.02;88.74;102406.53;5051460;28;19924;-62
2023/01/26 12:06:28;;;;;;;;;;;;;;;8.26;91.87;102405.41;5040785;28;20300;-63
2023/01/26 12:08:58;;;;;;;;;;;;;;;7.83;94.62;102410.34;5049278;28;19947;-62
2023/01/26 12:11:27;;;;;;;;;;;;;;;7.47;96.47;102409.88;5032567;28;19921;-63
2023/01/26 12:13:52;;;;;;;;;;;;;;;7.43;97.82;102403.03;5034143;28;20291;-62
2023/01/26 12:16:23;;;;;;;;;;;;;;;7.60;97.92;102403.88;5051717;28;19921;-62
2023/01/26 12:18:58;;;;;;;;;;;;;;;7.66;96.89;102386.78;5051854;28;19967;-62
2023/01/26 12:21:24;;;;;;;;;;;;;;;7.76;98.19;102398.41;5052635;28;20268;-62
2023/01/26 12:23:55;;;;;;;;;;;;;;;8.40;96.88;102395.63;5053768;28;19917;-62
2023/01/26 12:26:22;;;;;;;;;;;;;;;8.79;95.92;102385.47;5048207;28;19920;-63
2023/01/26 12:29:08;;;;;;;;;;;;;;;9.22;93.24;102385.81;5036148;28;19936;-62
2023/01/26 12:31:44;;;;;;;;;;;;;;;9.43;92.83;102378.78;5052950;28;19924;-64
2023/01/26 12:34:11;;;;;;;;;;;;;;;9.26;93.03;102370.72;5044456;28;19955;-62
2023/01/26 12:36:55;;;;;;;;;;;;;;;9.44;92.55;102370.41;5038312;28;19925;-61
2023/01/26 12:39:38;;;;;;;;;;;;;;;9.77;91.37;102353.59;5041160;28;19928;-63
2023/01/26 12:42:16;;;;;;;;;;;;;;;10.74;89.82;102359.72;5048736;28;20346;-63
2023/01/26 12:44:43;;;;;;;;;;;;;;;11.04;85.70;102343.13;5043552;28;20011;-63
2023/01/26 12:47:27;;;;;;;;;;;;;;;11.23;84.98;102338.84;5039937;28;20357;-65
2023/01/26 12:49:55;;;;;;;;;;;;;;;10.89;84.60;102345.94;5038684;28;19921;-62
2023/01/26 12:52:35;;;;;;;;;;;;;;;10.15;87.14;102343.38;5042639;28;19921;-65
2023/01/26 12:55:00;;;;;;;;;;;;;;;9.29;89.63;102345.69;5049668;28;19928;-66
2023/01/26 12:57:29;;;;;;;;;;;;;;;8.61;92.34;102354.75;5038120;28;19924;-63
2023/01/26 13:00:01;;;;;;;;;;;;;;;8.12;94.57;102349.53;5036761;28;19928;-62
2023/01/26 13:02:28;;;;;;;;;;;;;;;7.77;96.39;102348.97;5045094;28;19925;-63
2023/01/26 13:04:55;;;;;;;;;;;;;;;7.68;98.67;102351.91;5040688;28;19978;-63
2023/01/26 13:07:34;;;;;;;;;;;;;;;7.62;98.89;102342.53;5036721;28;20505;-62
2023/01/26 13:10:16;;;;;;;;;;;;;;;7.83;98.24;102341.09;5042024;28;19932;-64
2023/01/26 13:12:44;;;;;;;;;;;;;;;7.75;97.87;102345.56;5036843;28;19928;-63
2023/01/26 13:15:13;;;;;;;;;;;;;;;7.77;98.22;102342.66;5039988;28;19959;-63
2023/01/26 13:17:49;;;;;;;;;;;;;;;7.62;98.46;102348.00;5043934;28;19921;-66
2023/01/26 13:20:20;;;;;;;;;;;;;;;7.53;98.62;102346.31;5041943;28;19981;-63
2023/01/26 13:22:46;;;;;;;;;;;;;;;7.43;98.98;102342.91;5036598;28;20287;-62
2023/01/26 13:25:13;;;;;;;;;;;;;;;7.21;99.02;102344.47;5042530;28;19917;-65
2023/01/26 13:27:38;;;;;;;;;;;;;;;7.01;99.35;102338.50;5048696;28;20433;-65